createdAt,value
2023-04-18T17:37:17.383Z,4.85
2023-04-18T17:39:49.002Z,4.83
2023-04-18T17:42:21.580Z,4.75
2023-04-18T17:44:52.998Z,4.20
2023-04-18T17:47:24.620Z,5.53
2023-04-18T17:49:56.052Z,4.58
2023-04-18T17:52:29.078Z,4.92
2023-04-18T17:55:01.695Z,4.60
2023-04-18T17:57:34.862Z,4.45
2023-04-18T18:00:10.725Z,5.17
2023-04-18T18:02:42.822Z,5.67
2023-04-18T18:05:14.589Z,5.20
2023-04-18T18:07:47.630Z,4.97
2023-04-18T18:10:21.874Z,5.08
2023-04-18T18:12:53.572Z,4.95
2023-04-18T18:15:25.523Z,5.10
2023-04-18T18:17:57.361Z,4.72
2023-04-18T18:20:29.236Z,6.70
2023-04-18T18:23:01.896Z,5.47
2023-04-18T18:25:42.139Z,5.67
2023-04-18T18:28:14.096Z,4.47
2023-04-18T18:30:45.545Z,5.85
2023-04-18T18:33:17.140Z,5.40
2023-04-18T18:35:48.609Z,5.12
2023-04-18T18:38:20.179Z,6.05
2023-04-18T18:40:52.374Z,6.22
2023-04-18T18:43:26.935Z,4.97
2023-04-18T18:45:58.521Z,5.50
2023-04-18T18:48:30.314Z,5.40
2023-04-18T18:51:01.802Z,5.90
2023-04-18T18:53:33.262Z,4.67
2023-04-18T18:56:04.758Z,5.22
2023-04-18T19:03:54.068Z,4.78
2023-04-18T19:06:26.456Z,5.20
2023-04-18T19:08:58.586Z,5.40
2023-04-18T19:11:30.089Z,4.80
2023-04-18T19:19:24.900Z,5.40
2023-04-18T19:22:01.179Z,5.78
2023-04-18T19:24:32.796Z,6.40
2023-04-18T19:27:04.323Z,5.87
2023-04-18T19:29:38.487Z,5.70
2023-04-18T19:32:09.958Z,5.83
2023-04-18T19:34:41.598Z,6.25
2023-04-18T19:37:15.351Z,5.22
2023-04-18T19:39:46.805Z,5.95
2023-04-18T19:42:18.238Z,4.97
2023-04-18T19:44:49.737Z,6.22
2023-04-18T19:47:21.185Z,5.12
2023-04-18T19:49:52.673Z,5.22
2023-04-18T19:52:24.195Z,5.28
2023-04-18T19:54:56.015Z,5.70
2023-04-18T19:57:29.063Z,5.35
2023-04-18T20:00:00.628Z,5.00
2023-04-18T20:02:32.127Z,5.50
2023-04-18T20:05:04.794Z,5.83
2023-04-18T20:07:36.460Z,5.47
2023-04-18T20:10:10.763Z,5.92
2023-04-18T20:12:42.246Z,5.25
2023-04-18T20:15:14.353Z,5.40
2023-04-18T20:17:45.811Z,4.83
2023-04-18T20:20:17.403Z,4.85
2023-04-18T20:22:49.195Z,5.80
2023-04-18T20:25:20.787Z,5.50
2023-04-18T20:27:52.216Z,5.70
2023-04-18T20:30:24.206Z,5.97
2023-04-18T20:32:55.825Z,6.75
2023-04-18T20:35:28.689Z,6.55
2023-04-18T20:38:00.934Z,6.40
2023-04-18T20:40:33.323Z,7.00
2023-04-18T20:43:06.828Z,7.10
2023-04-18T20:45:40.597Z,8.03
2023-04-18T20:48:12.073Z,6.97
2023-04-18T20:50:45.687Z,6.97
2023-04-18T20:53:17.170Z,6.70
2023-04-18T20:55:49.080Z,6.15
2023-04-18T20:58:20.640Z,7.40
2023-04-18T21:00:53.122Z,6.05
2023-04-18T21:03:24.762Z,5.28
2023-04-18T21:05:56.339Z,7.53
2023-04-18T21:08:27.870Z,7.62
2023-04-18T21:10:59.425Z,6.28
2023-04-18T21:13:31.137Z,7.22
2023-04-18T21:16:03.788Z,6.92
2023-04-18T21:18:35.445Z,6.65
2023-04-18T21:21:07.464Z,7.28
2023-04-18T21:23:44.443Z,8.33
2023-04-18T21:26:16.210Z,7.50
2023-04-18T21:29:01.053Z,7.65
2023-04-18T21:31:34.768Z,7.75
2023-04-18T21:34:07.849Z,7.50
2023-04-18T21:36:40.654Z,7.15
2023-04-18T21:39:12.432Z,6.90
2023-04-18T21:41:43.856Z,6.00
2023-04-18T21:44:17.245Z,7.72
2023-04-18T21:46:48.782Z,8.60
2023-04-18T21:49:20.547Z,6.30
2023-04-18T21:51:52.580Z,7.08
2023-04-18T21:54:24.067Z,7.80
2023-04-18T21:56:55.862Z,5.72
2023-04-18T21:59:27.401Z,6.75
2023-04-18T22:01:59.011Z,5.15
2023-04-18T22:04:33.148Z,5.37
2023-04-18T22:07:04.773Z,6.00
2023-04-18T22:09:37.399Z,6.80
2023-04-18T22:12:09.667Z,7.50
2023-04-18T22:14:42.018Z,6.50
2023-04-18T22:17:13.817Z,6.42
2023-04-18T22:19:45.356Z,6.83
2023-04-18T22:22:16.827Z,5.83
2023-04-18T22:24:48.369Z,6.08
2023-04-18T22:27:19.731Z,5.37
2023-04-18T22:29:51.643Z,6.15
2023-04-18T22:32:23.144Z,6.37
2023-04-18T22:34:54.788Z,6.70
2023-04-18T22:37:26.313Z,6.30
2023-04-18T22:40:19.730Z,6.05
2023-04-18T22:42:51.812Z,5.72
2023-04-18T22:45:23.272Z,6.60
2023-04-18T22:47:54.823Z,5.55
2023-04-18T22:50:28.071Z,8.18
2023-04-18T22:52:59.544Z,6.53
2023-04-18T22:55:31.013Z,6.22
2023-04-18T22:58:02.510Z,5.80
2023-04-18T23:00:34.180Z,6.50
2023-04-18T23:03:05.915Z,7.28
2023-04-18T23:05:39.579Z,7.45
2023-04-18T23:08:11.794Z,6.85
2023-04-18T23:10:43.462Z,6.60
2023-04-18T23:13:15.339Z,5.67
2023-04-18T23:15:47.225Z,5.40
2023-04-18T23:18:18.842Z,6.92
2023-04-18T23:20:50.414Z,8.13
2023-04-18T23:23:21.874Z,6.90
2023-04-18T23:25:53.479Z,5.78
2023-04-18T23:28:25.022Z,7.58
2023-04-18T23:30:56.647Z,6.72
2023-04-18T23:33:28.347Z,8.58
2023-04-18T23:35:59.927Z,6.97
2023-04-18T23:38:32.719Z,7.30
2023-04-18T23:41:04.410Z,5.85
2023-04-18T23:43:36.729Z,6.33
2023-04-18T23:46:08.241Z,6.15
2023-04-18T23:48:39.997Z,7.22
2023-04-18T23:51:11.978Z,5.87
2023-04-18T23:53:43.500Z,7.10
2023-04-18T23:56:14.919Z,6.65
2023-04-18T23:58:46.692Z,6.65
